PILOTS ONLINE: 313    ATC ONLINE: 34

KMEI

Key Field

Location

IATA MEI
City Meridian
Country  United States
Latitude 32° 19' 57" N
Longitude 88° 45' 6" W
Elevation 297 ft
Type Medium Airport

Map

Weather

METAR
2014/10/22 11:58
KMEI 221158Z 00000KT 10SM CLR 08/07 A3012 RMK AO2 SLP197 T00780072 10106 20078 53015
TAF
2014/10/22 12:24
TAF KMEI 221120Z 2212/2312 36005KT 6SM BR FEW002 
     FM221300 03008KT P6SM SKC

Runways

01/19 10003 ft / 150 ft
04/22 4599 ft / 150 ft

Outbound flights

Callsign Flying to Pilot ATD/STD ETA Aircraft

Inbound flights

Callsign Flying from Pilot ATD ETA Aircraft